Time;durP1;ratioP1;P1;durP2;ratioP2;P2;SDS_P1;SDS_P2;PMS_P1;PMS_P2;Temp;Humidity;BMP_temperature;BMP_pressure;BME280_temperature;BME280_humidity;BME280_pressure;Samples;Min_cycle;Max_cycle;Signal;HPM_P1;HPM_P2
2023/11/21 00:02:42;;;;;;;;;;;;;;;9.65;74.03;97392.03;5006669;28;19935;-74
2023/11/21 00:05:31;;;;;;;;;;;;;;;9.71;73.14;97396.19;5006651;28;20016;-74
2023/11/21 00:08:19;;;;;;;;;;;;;;;9.34;75.10;97387.53;5010727;28;20415;-74
2023/11/21 00:11:07;;;;;;;;;;;;;;;9.55;74.36;97385.00;5010629;28;19956;-74
2023/11/21 00:13:56;;;;;;;;;;;;;;;9.60;73.81;97395.69;5010446;28;19929;-75
2023/11/21 00:16:45;;;;;;;;;;;;;;;9.62;73.51;97387.25;5006225;28;19932;-74
2023/11/21 00:19:33;;;;;;;;;;;;;;;9.69;73.31;97398.41;5010552;28;20438;-74
2023/11/21 00:22:21;;;;;;;;;;;;;;;9.58;73.75;97394.41;5008481;28;19925;-75
2023/11/21 00:25:10;;;;;;;;;;;;;;;9.65;73.91;97392.84;5010025;28;19933;-74
2023/11/21 00:27:58;;;;;;;;;;;;;;;9.61;74.35;97397.28;4996425;28;19933;-74
2023/11/21 00:30:47;;;;;;;;;;;;;;;9.58;74.91;97391.69;5007454;28;19932;-74
2023/11/21 00:33:35;;;;;;;;;;;;;;;9.59;75.06;97390.59;5011534;28;19933;-74
2023/11/21 00:36:23;;;;;;;;;;;;;;;9.61;75.45;97393.78;5008137;28;19926;-75
2023/11/21 00:39:11;;;;;;;;;;;;;;;9.60;75.56;97392.19;5008713;28;20020;-74
2023/11/21 00:42:00;;;;;;;;;;;;;;;9.61;75.36;97385.66;5011010;28;19925;-74
2023/11/21 00:44:48;;;;;;;;;;;;;;;9.60;75.38;97392.19;4990991;28;19926;-74
2023/11/21 00:47:38;;;;;;;;;;;;;;;9.64;75.14;97382.28;5009568;28;19925;-74
2023/11/21 00:50:27;;;;;;;;;;;;;;;9.59;75.12;97377.84;4996911;28;19932;-75
2023/11/21 00:53:17;;;;;;;;;;;;;;;9.55;75.12;97376.88;5007449;28;19932;-75
2023/11/21 00:56:06;;;;;;;;;;;;;;;9.59;75.28;97377.84;5010000;28;19929;-74
2023/11/21 00:58:55;;;;;;;;;;;;;;;9.56;75.02;97381.16;5007180;28;19925;-74
2023/11/21 01:01:43;;;;;;;;;;;;;;;9.65;75.35;97381.19;5008015;28;19940;-74
2023/11/21 01:04:32;;;;;;;;;;;;;;;9.61;74.98;97386.44;4989135;28;19931;-74
2023/11/21 01:07:21;;;;;;;;;;;;;;;9.50;75.51;97387.06;5009962;28;19925;-74
2023/11/21 01:10:09;;;;;;;;;;;;;;;9.49;75.65;97383.56;5009969;28;20413;-74
2023/11/21 01:12:58;;;;;;;;;;;;;;;9.47;76.21;97388.50;5010791;28;19925;-74
2023/11/21 01:15:46;;;;;;;;;;;;;;;9.59;75.74;97393.31;5009688;28;20024;-74
2023/11/21 01:18:34;;;;;;;;;;;;;;;9.45;75.80;97394.25;5005178;28;19926;-74
2023/11/21 01:21:24;;;;;;;;;;;;;;;9.59;75.55;97390.59;5009885;28;19929;-74
2023/11/21 01:24:12;;;;;;;;;;;;;;;9.57;75.97;97387.41;4995842;28;20055;-74
2023/11/21 01:27:00;;;;;;;;;;;;;;;9.59;75.42;97396.03;5010649;28;20391;-74
2023/11/21 01:29:48;;;;;;;;;;;;;;;9.56;75.60;97394.72;5008659;28;19930;-74
2023/11/21 01:32:37;;;;;;;;;;;;;;;9.63;75.29;97394.25;5005640;28;19933;-74
2023/11/21 01:35:25;;;;;;;;;;;;;;;9.65;75.25;97394.75;4999477;28;20400;-74
2023/11/21 01:38:15;;;;;;;;;;;;;;;9.60;74.69;97392.19;5009174;28;19930;-74
2023/11/21 01:41:03;;;;;;;;;;;;;;;9.45;74.81;97383.38;5003849;28;20483;-75
2023/11/21 01:43:54;;;;;;;;;;;;;;;9.42;74.76;97391.34;5005738;28;20291;-74
2023/11/21 01:46:42;;;;;;;;;;;;;;;9.46;75.11;97381.47;5005629;28;20008;-74
2023/11/21 01:49:30;;;;;;;;;;;;;;;9.26;76.10;97384.78;5004233;28;19960;-74
2023/11/21 01:52:19;;;;;;;;;;;;;;;9.34;75.78;97382.09;5003199;28;19941;-74
2023/11/21 01:55:09;;;;;;;;;;;;;;;8.92;77.43;97387.06;4992601;28;20293;-74
2023/11/21 01:57:57;;;;;;;;;;;;;;;9.31;76.20;97379.22;5005559;28;19933;-74
2023/11/21 02:00:49;;;;;;;;;;;;;;;9.28;75.69;97375.22;5005341;28;19988;-74
2023/11/21 02:03:37;;;;;;;;;;;;;;;9.36;75.73;97374.44;5007224;28;19925;-75
2023/11/21 02:06:25;;;;;;;;;;;;;;;9.38;75.88;97376.84;5008122;28;19929;-74
2023/11/21 02:09:15;;;;;;;;;;;;;;;9.34;75.56;97376.69;5009135;28;19926;-74
2023/11/21 02:12:05;;;;;;;;;;;;;;;9.18;75.65;97367.38;5007513;28;19980;-74
2023/11/21 02:14:53;;;;;;;;;;;;;;;9.35;75.57;97372.84;5010373;28;19986;-76
2023/11/21 02:17:41;;;;;;;;;;;;;;;9.52;74.78;97371.28;5009876;28;19940;-74
2023/11/21 02:20:29;;;;;;;;;;;;;;;9.51;74.34;97365.06;4992329;28;19929;-74
2023/11/21 02:23:19;;;;;;;;;;;;;;;9.57;74.17;97368.41;4997628;28;20677;-74
2023/11/21 02:26:07;;;;;;;;;;;;;;;9.52;74.24;97376.69;5004818;28;19932;-74
2023/11/21 02:28:58;;;;;;;;;;;;;;;9.50;74.17;97366.19;5008786;28;19929;-74
2023/11/21 02:31:48;;;;;;;;;;;;;;;9.45;74.38;97369.84;4988611;28;19968;-74
2023/11/21 02:34:37;;;;;;;;;;;;;;;9.56;74.11;97366.81;5004156;28;20375;-74
2023/11/21 02:37:25;;;;;;;;;;;;;;;9.61;74.03;97372.09;5004622;28;19926;-74
2023/11/21 02:40:17;;;;;;;;;;;;;;;9.61;74.11;97366.66;5007636;28;19933;-74
2023/11/21 02:43:05;;;;;;;;;;;;;;;9.54;74.14;97366.34;5005020;28;19933;-75
2023/11/21 02:45:53;;;;;;;;;;;;;;;9.39;74.89;97367.59;5010758;28;19925;-74
2023/11/21 02:48:41;;;;;;;;;;;;;;;9.37;75.24;97370.59;5007054;28;19933;-74
2023/11/21 02:51:29;;;;;;;;;;;;;;;9.45;74.84;97369.84;4999016;28;19940;-74
2023/11/21 02:54:17;;;;;;;;;;;;;;;9.49;74.66;97361.06;5007482;28;19984;-74
2023/11/21 02:57:08;;;;;;;;;;;;;;;9.57;74.52;97362.97;5002455;28;20413;-74
2023/11/21 02:59:57;;;;;;;;;;;;;;;9.61;74.63;97364.75;5007993;28;19925;-74
2023/11/21 03:02:47;;;;;;;;;;;;;;;9.61;74.30;97358.53;5006057;28;19940;-75
2023/11/21 03:05:36;;;;;;;;;;;;;;;9.61;74.31;97363.94;5004300;28;19965;-74
2023/11/21 03:08:25;;;;;;;;;;;;;;;9.53;74.44;97356.59;5006552;28;20284;-74
2023/11/21 03:11:13;;;;;;;;;;;;;;;9.56;74.45;97355.97;4996738;28;19947;-74
2023/11/21 03:14:03;;;;;;;;;;;;;;;9.56;74.21;97359.47;4993141;28;19930;-74
2023/11/21 03:16:51;;;;;;;;;;;;;;;9.68;74.16;97361.56;5009906;28;19930;-74
2023/11/21 03:19:39;;;;;;;;;;;;;;;9.59;74.45;97358.06;5004606;28;19926;-74
2023/11/21 03:22:30;;;;;;;;;;;;;;;9.59;74.39;97364.28;5005345;28;20384;-75
2023/11/21 03:25:19;;;;;;;;;;;;;;;9.59;74.57;97377.03;4987749;28;20067;-74
2023/11/21 03:28:09;;;;;;;;;;;;;;;9.57;74.57;97373.84;5007161;28;20011;-74
2023/11/21 03:30:58;;;;;;;;;;;;;;;9.57;74.62;97368.41;5007021;28;19932;-74
2023/11/21 03:33:47;;;;;;;;;;;;;;;9.54;74.33;97363.63;5006238;28;19937;-74
2023/11/21 03:36:36;;;;;;;;;;;;;;;9.52;74.70;97368.56;5003245;28;19929;-74
2023/11/21 03:39:25;;;;;;;;;;;;;;;9.50;74.87;97363.47;4993871;28;19934;-74
2023/11/21 03:42:13;;;;;;;;;;;;;;;9.51;74.80;97370.47;4993719;28;19944;-74
2023/11/21 03:45:02;;;;;;;;;;;;;;;9.48;75.07;97365.72;5008248;28;19925;-74
2023/11/21 03:47:52;;;;;;;;;;;;;;;9.50;74.70;97355.31;4988409;28;20316;-74
2023/11/21 03:50:40;;;;;;;;;;;;;;;9.60;74.43;97367.78;5007508;28;19926;-74
2023/11/21 03:53:28;;;;;;;;;;;;;;;9.66;74.35;97369.22;5007209;28;19925;-74
2023/11/21 03:56:16;;;;;;;;;;;;;;;9.59;74.59;97363.47;5007164;28;20408;-74
2023/11/21 03:59:04;;;;;;;;;;;;;;;9.55;74.51;97370.66;5008471;28;19936;-74
2023/11/21 04:01:52;;;;;;;;;;;;;;;9.44;74.84;97370.97;5010834;28;19925;-74
2023/11/21 04:04:42;;;;;;;;;;;;;;;9.41;74.62;97370.78;5006037;28;20054;-74
2023/11/21 04:07:32;;;;;;;;;;;;;;;9.25;75.16;97383.97;5006262;28;19932;-74
2023/11/21 04:10:20;;;;;;;;;;;;;;;9.39;74.79;97368.41;5009637;28;20075;-74
2023/11/21 04:13:08;;;;;;;;;;;;;;;9.44;74.74;97379.09;5009337;28;19956;-74
2023/11/21 04:15:56;;;;;;;;;;;;;;;9.24;75.15;97373.47;5007857;28;20413;-74
2023/11/21 04:18:45;;;;;;;;;;;;;;;9.41;74.95;97360.72;5010296;28;19999;-74
2023/11/21 04:21:35;;;;;;;;;;;;;;;9.34;74.59;97368.53;5010219;28;19932;-74
2023/11/21 04:24:24;;;;;;;;;;;;;;;9.32;75.42;97367.25;5008962;28;20386;-74
2023/11/21 04:27:13;;;;;;;;;;;;;;;9.44;74.86;97370.97;5009325;28;19932;-74
2023/11/21 04:30:01;;;;;;;;;;;;;;;9.36;74.63;97369.00;5005552;28;19936;-74
2023/11/21 04:32:49;;;;;;;;;;;;;;;9.44;74.90;97373.66;5009138;28;19925;-74
2023/11/21 04:35:37;;;;;;;;;;;;;;;9.29;75.33;97367.91;5009576;28;19980;-74
2023/11/21 04:38:26;;;;;;;;;;;;;;;9.48;74.73;97375.72;5008705;28;20502;-74
2023/11/21 04:41:15;;;;;;;;;;;;;;;9.45;75.14;97383.38;5003791;28;19926;-74
2023/11/21 04:44:03;;;;;;;;;;;;;;;9.54;74.82;97382.63;5006741;28;19926;-74
2023/11/21 04:46:51;;;;;;;;;;;;;;;9.35;74.72;97382.91;5005752;28;19929;-74
2023/11/21 04:49:43;;;;;;;;;;;;;;;9.55;74.07;97382.28;5002297;28;19925;-74
2023/11/21 04:52:32;;;;;;;;;;;;;;;9.60;74.72;97394.91;5005660;28;19932;-75
2023/11/21 04:55:22;;;;;;;;;;;;;;;9.62;73.99;97390.75;5006671;28;19930;-74
2023/11/21 04:58:11;;;;;;;;;;;;;;;9.61;73.72;97397.28;5007788;28;20299;-74
2023/11/21 05:00:59;;;;;;;;;;;;;;;9.54;74.36;97396.19;5005519;28;19931;-74
2023/11/21 05:03:48;;;;;;;;;;;;;;;9.57;74.12;97395.53;5003505;28;20002;-74
2023/11/21 05:06:37;;;;;;;;;;;;;;;9.65;74.35;97390.13;5004019;28;19925;-74
2023/11/21 05:09:26;;;;;;;;;;;;;;;9.64;74.09;97385.81;5001618;28;20445;-74
2023/11/21 05:12:15;;;;;;;;;;;;;;;9.75;74.21;97391.72;5003393;28;19992;-74
2023/11/21 05:15:07;;;;;;;;;;;;;;;9.81;74.12;97395.88;5006733;28;20012;-74
2023/11/21 05:17:55;;;;;;;;;;;;;;;9.84;73.33;97397.94;5006685;28;19925;-74
2023/11/21 05:20:44;;;;;;;;;;;;;;;9.68;73.31;97394.09;5007770;28;19925;-74
2023/11/21 05:23:32;;;;;;;;;;;;;;;9.87;73.19;97404.66;5009677;28;19926;-74
2023/11/21 05:26:20;;;;;;;;;;;;;;;10.02;72.92;97406.09;5004936;28;20391;-74
2023/11/21 05:29:11;;;;;;;;;;;;;;;10.05;73.18;97402.72;5000519;28;19983;-74
2023/11/21 05:32:00;;;;;;;;;;;;;;;10.14;72.51;97408.97;5009071;28;20610;-74
2023/11/21 05:34:49;;;;;;;;;;;;;;;10.15;72.26;97411.34;5003317;28;19932;-75
2023/11/21 05:37:38;;;;;;;;;;;;;;;10.13;72.23;97418.22;5004943;28;19933;-74
2023/11/21 05:40:30;;;;;;;;;;;;;;;9.88;73.21;97415.19;5006713;28;20367;-74
2023/11/21 05:43:18;;;;;;;;;;;;;;;9.91;73.33;97422.69;5010564;28;19926;-73
2023/11/21 05:46:08;;;;;;;;;;;;;;;9.93;73.43;97428.59;5009548;28;19981;-75
2023/11/21 05:48:56;;;;;;;;;;;;;;;9.95;72.78;97433.69;5015374;28;19933;-75
2023/11/21 05:51:45;;;;;;;;;;;;;;;9.85;73.47;97434.00;5003117;28;20279;-75
2023/11/21 05:54:33;;;;;;;;;;;;;;;9.90;72.95;97429.22;5008103;28;20028;-74
2023/11/21 05:57:21;;;;;;;;;;;;;;;9.84;73.13;97422.34;5005839;28;19986;-74
2023/11/21 06:00:13;;;;;;;;;;;;;;;9.81;73.60;97427.63;5007044;28;19929;-75
2023/11/21 06:03:06;;;;;;;;;;;;;;;9.80;73.18;97434.16;5004678;28;19936;-74
2023/11/21 06:05:54;;;;;;;;;;;;;;;9.87;73.42;97434.50;5006092;28;19933;-75
2023/11/21 06:08:42;;;;;;;;;;;;;;;9.87;73.39;97435.31;5006288;28;19945;-74
2023/11/21 06:11:30;;;;;;;;;;;;;;;9.87;73.02;97437.22;5006752;28;19930;-74
2023/11/21 06:14:19;;;;;;;;;;;;;;;9.86;73.05;97447.28;5009470;28;19932;-75
2023/11/21 06:17:07;;;;;;;;;;;;;;;9.94;73.04;97443.75;5007171;28;19936;-74
2023/11/21 06:19:56;;;;;;;;;;;;;;;9.92;73.44;97440.56;5007981;28;19940;-75
2023/11/21 06:22:46;;;;;;;;;;;;;;;9.94;73.20;97446.47;5007363;28;20039;-75
2023/11/21 06:25:36;;;;;;;;;;;;;;;9.94;73.46;97448.38;5009352;28;19955;-74
2023/11/21 06:28:24;;;;;;;;;;;;;;;9.91;73.19;97443.63;5012001;28;19952;-74
2023/11/21 06:31:12;;;;;;;;;;;;;;;9.91;73.39;97449.84;5006193;28;19926;-74
2023/11/21 06:34:03;;;;;;;;;;;;;;;9.93;73.18;97444.88;5005265;28;19954;-74
2023/11/21 06:36:52;;;;;;;;;;;;;;;9.94;73.05;97451.91;5008731;28;19929;-74
2023/11/21 06:39:40;;;;;;;;;;;;;;;10.07;72.83;97449.38;5012058;28;19925;-74
2023/11/21 06:42:29;;;;;;;;;;;;;;;10.04;72.71;97455.41;5012208;28;20013;-74
2023/11/21 06:45:17;;;;;;;;;;;;;;;10.06;72.61;97458.59;5010966;28;20027;-75
2023/11/21 06:48:05;;;;;;;;;;;;;;;10.07;72.52;97473.81;4997127;28;19926;-75
2023/11/21 06:50:53;;;;;;;;;;;;;;;10.00;72.71;97478.88;5011568;28;19925;-75
2023/11/21 06:53:45;;;;;;;;;;;;;;;10.06;72.68;97477.59;5006624;28;19961;-75
2023/11/21 06:56:33;;;;;;;;;;;;;;;10.00;72.91;97479.69;5011854;28;19925;-75
2023/11/21 06:59:23;;;;;;;;;;;;;;;10.03;72.98;97475.53;5012303;28;19952;-75
2023/11/21 07:02:11;;;;;;;;;;;;;;;10.05;72.22;97479.53;5010217;28;19940;-75
2023/11/21 07:04:59;;;;;;;;;;;;;;;9.98;72.25;97487.34;4993876;28;20403;-75
2023/11/21 07:07:48;;;;;;;;;;;;;;;10.06;72.04;97491.97;5004218;28;20091;-74
2023/11/21 07:10:37;;;;;;;;;;;;;;;10.09;71.77;97493.25;5002546;28;19925;-75
2023/11/21 07:13:26;;;;;;;;;;;;;;;10.05;72.54;97503.16;5005127;28;20009;-75
2023/11/21 07:16:15;;;;;;;;;;;;;;;10.18;71.89;97507.66;5009758;28;19930;-75
2023/11/21 07:19:05;;;;;;;;;;;;;;;10.08;72.23;97516.91;5010553;28;20015;-75
2023/11/21 07:21:53;;;;;;;;;;;;;;;10.06;72.49;97518.31;5010844;28;21218;-75
2023/11/21 07:24:44;;;;;;;;;;;;;;;10.05;72.44;97519.44;5010555;28;20012;-75
2023/11/21 07:27:35;;;;;;;;;;;;;;;10.13;72.43;97515.94;5002559;28;20633;-75
2023/11/21 07:30:26;;;;;;;;;;;;;;;10.11;72.72;97518.16;5001510;28;19949;-75
2023/11/21 07:33:14;;;;;;;;;;;;;;;10.17;72.27;97525.03;5011594;28;19933;-75
2023/11/21 07:36:02;;;;;;;;;;;;;;;10.25;72.16;97524.28;4994771;28;19925;-75
2023/11/21 07:38:50;;;;;;;;;;;;;;;10.21;72.09;97539.56;5011047;28;20239;-75
2023/11/21 07:41:44;;;;;;;;;;;;;;;10.21;72.12;97534.94;5010087;28;19929;-75
2023/11/21 07:44:34;;;;;;;;;;;;;;;10.18;72.56;97530.16;5007378;28;19932;-75
2023/11/21 07:47:22;;;;;;;;;;;;;;;10.12;72.43;97530.63;5011349;28;19971;-75
2023/11/21 07:50:10;;;;;;;;;;;;;;;10.17;72.45;97535.88;5008727;28;20423;-75
2023/11/21 07:52:59;;;;;;;;;;;;;;;10.10;72.97;97539.09;5007254;28;20383;-75
2023/11/21 07:55:47;;;;;;;;;;;;;;;10.12;73.13;97542.28;5010010;28;19934;-76
2023/11/21 07:58:35;;;;;;;;;;;;;;;10.15;73.12;97530.78;5011394;28;20288;-75
2023/11/21 08:01:24;;;;;;;;;;;;;;;10.16;73.03;97539.72;4999168;28;19982;-75
2023/11/21 08:04:14;;;;;;;;;;;;;;;10.12;73.14;97541.47;4998730;28;20276;-75
2023/11/21 08:07:03;;;;;;;;;;;;;;;10.05;73.57;97541.16;5007161;28;20391;-75
2023/11/21 08:09:52;;;;;;;;;;;;;;;10.08;73.64;97549.47;5008434;28;19933;-75
2023/11/21 08:12:42;;;;;;;;;;;;;;;10.03;73.71;97543.41;4999876;28;19961;-75
2023/11/21 08:15:31;;;;;;;;;;;;;;;10.08;73.60;97545.97;5004013;28;19945;-75
2023/11/21 08:18:21;;;;;;;;;;;;;;;10.10;73.61;97554.56;5006526;28;20407;-76
2023/11/21 08:21:12;;;;;;;;;;;;;;;9.83;73.21;97556.41;5006515;28;19929;-75
2023/11/21 08:24:00;;;;;;;;;;;;;;;9.82;72.99;97557.53;5008089;28;19932;-75
2023/11/21 08:26:49;;;;;;;;;;;;;;;9.92;72.47;97553.75;5003200;28;20056;-75
2023/11/21 08:29:37;;;;;;;;;;;;;;;9.95;72.24;97545.75;5005646;28;19949;-74
2023/11/21 08:32:25;;;;;;;;;;;;;;;10.03;72.35;97551.53;5004101;28;20018;-75
2023/11/21 08:35:15;;;;;;;;;;;;;;;10.05;72.64;97547.38;5008434;28;20024;-75
2023/11/21 08:38:03;;;;;;;;;;;;;;;9.82;72.34;97560.25;5004314;28;19933;-75
2023/11/21 08:40:52;;;;;;;;;;;;;;;9.81;72.64;97558.66;5006697;28;19937;-75
2023/11/21 08:43:40;;;;;;;;;;;;;;;9.85;72.62;97554.19;5001096;28;20003;-75
2023/11/21 08:46:28;;;;;;;;;;;;;;;9.94;72.65;97552.31;4996186;28;19930;-76
2023/11/21 08:49:17;;;;;;;;;;;;;;;9.76;73.18;97558.81;4998599;28;19925;-75
2023/11/21 08:52:06;;;;;;;;;;;;;;;9.84;73.09;97562.66;5005612;28;20016;-75
2023/11/21 08:55:02;;;;;;;;;;;;;;;9.89;73.18;97568.72;4999961;28;19929;-75
2023/11/21 08:57:50;;;;;;;;;;;;;;;9.89;73.42;97573.34;5004635;28;19935;-75
2023/11/21 09:00:39;;;;;;;;;;;;;;;9.90;73.35;97580.38;5005284;28;19983;-75
2023/11/21 09:03:28;;;;;;;;;;;;;;;9.96;72.92;97579.94;5003831;28;19930;-75
2023/11/21 09:06:16;;;;;;;;;;;;;;;9.95;73.44;97574.81;5002818;28;19925;-75
2023/11/21 09:09:06;;;;;;;;;;;;;;;10.02;73.61;97579.78;5008642;28;20440;-75
2023/11/21 09:11:54;;;;;;;;;;;;;;;10.08;73.71;97589.38;5005460;28;20379;-75
2023/11/21 09:14:43;;;;;;;;;;;;;;;9.88;73.01;97596.97;5006127;28;20035;-75
2023/11/21 09:17:31;;;;;;;;;;;;;;;10.03;72.80;97597.66;5002061;28;20276;-75
2023/11/21 09:20:22;;;;;;;;;;;;;;;10.04;72.66;97604.69;5006365;28;19925;-75
2023/11/21 09:23:10;;;;;;;;;;;;;;;9.98;72.62;97606.75;5007766;28;20007;-75
2023/11/21 09:26:00;;;;;;;;;;;;;;;10.00;72.81;97603.72;5009189;28;20092;-75
2023/11/21 09:28:49;;;;;;;;;;;;;;;10.00;72.46;97614.56;5002864;28;19937;-75
2023/11/21 09:31:39;;;;;;;;;;;;;;;9.86;72.79;97618.22;5000170;28;19929;-75
2023/11/21 09:34:27;;;;;;;;;;;;;;;9.93;73.18;97618.53;5006599;28;19926;-75
2023/11/21 09:37:15;;;;;;;;;;;;;;;9.69;74.17;97620.81;5004175;28;19929;-75
2023/11/21 09:40:04;;;;;;;;;;;;;;;9.85;74.16;97623.94;5005622;28;19925;-75
2023/11/21 09:42:56;;;;;;;;;;;;;;;9.94;73.94;97620.13;5005909;28;19972;-75
2023/11/21 09:45:45;;;;;;;;;;;;;;;10.07;74.00;97615.72;5006708;28;20299;-75
2023/11/21 09:48:33;;;;;;;;;;;;;;;9.95;73.75;97620.94;5005183;28;19984;-75
2023/11/21 09:51:22;;;;;;;;;;;;;;;10.04;73.69;97621.78;5006098;28;20410;-75
2023/11/21 09:54:11;;;;;;;;;;;;;;;10.10;73.72;97622.44;5007203;28;19925;-75
2023/11/21 09:56:59;;;;;;;;;;;;;;;10.09;73.11;97624.34;4990824;28;20446;-75
2023/11/21 09:59:50;;;;;;;;;;;;;;;10.01;72.92;97613.44;5004824;28;19971;-76
2023/11/21 10:02:38;;;;;;;;;;;;;;;10.09;72.47;97613.50;5002425;28;20056;-76
2023/11/21 10:05:26;;;;;;;;;;;;;;;10.21;72.56;97621.03;5006633;28;19933;-76
2023/11/21 10:08:16;;;;;;;;;;;;;;;10.08;72.19;97611.09;5006559;28;19969;-76
2023/11/21 10:11:06;;;;;;;;;;;;;;;9.85;72.88;97608.44;5010000;28;20335;-76
2023/11/21 10:13:57;;;;;;;;;;;;;;;9.98;72.96;97610.25;5007050;28;19933;-75
2023/11/21 10:16:46;;;;;;;;;;;;;;;10.05;73.27;97611.72;5006346;28;19930;-75
2023/11/21 10:19:36;;;;;;;;;;;;;;;10.11;73.12;97610.44;5006132;28;19925;-75
2023/11/21 10:22:24;;;;;;;;;;;;;;;10.16;73.30;97607.59;5002676;28;19932;-77
2023/11/21 10:25:14;;;;;;;;;;;;;;;10.14;72.99;97616.06;5004342;28;20400;-76
2023/11/21 10:28:04;;;;;;;;;;;;;;;10.30;72.66;97621.88;5005928;28;19929;-76
2023/11/21 10:30:53;;;;;;;;;;;;;;;10.46;72.47;97608.66;5007166;28;20291;-75
2023/11/21 10:33:42;;;;;;;;;;;;;;;10.45;71.62;97607.84;5014552;28;19929;-76
2023/11/21 10:36:30;;;;;;;;;;;;;;;10.57;71.53;97601.78;5011681;28;19930;-75
2023/11/21 10:39:19;;;;;;;;;;;;;;;10.53;71.23;97608.16;5008118;28;19929;-75
2023/11/21 10:42:09;;;;;;;;;;;;;;;10.35;71.25;97605.44;5007453;28;19933;-75
2023/11/21 10:44:58;;;;;;;;;;;;;;;10.48;70.96;97612.63;5007929;28;19999;-76
2023/11/21 10:47:46;;;;;;;;;;;;;;;10.51;70.73;97613.94;5008640;28;19932;-75
2023/11/21 10:50:35;;;;;;;;;;;;;;;10.63;70.58;97616.00;5008842;28;19930;-75
2023/11/21 10:53:23;;;;;;;;;;;;;;;10.60;69.82;97622.06;5011163;28;20063;-76
2023/11/21 10:56:17;;;;;;;;;;;;;;;10.45;71.38;97623.34;5007992;28;19929;-75
2023/11/21 10:59:06;;;;;;;;;;;;;;;10.47;71.83;97630.06;5009122;28;19925;-76
2023/11/21 11:01:54;;;;;;;;;;;;;;;10.50;71.62;97625.91;5010469;28;19926;-76
2023/11/21 11:04:42;;;;;;;;;;;;;;;10.51;71.70;97629.44;5010838;28;19930;-76
2023/11/21 11:07:33;;;;;;;;;;;;;;;10.45;71.93;97626.06;5009120;28;20311;-76
2023/11/21 11:10:22;;;;;;;;;;;;;;;10.52;71.98;97631.03;5008376;28;20526;-77
2023/11/21 11:13:14;;;;;;;;;;;;;;;10.52;71.83;97634.53;5008495;28;20068;-76
2023/11/21 11:16:03;;;;;;;;;;;;;;;10.57;71.40;97622.72;5010002;28;19934;-75
2023/11/21 11:18:51;;;;;;;;;;;;;;;10.58;70.95;97629.75;5008991;28;20019;-76
2023/11/21 11:21:46;;;;;;;;;;;;;;;10.53;70.88;97633.41;5007578;28;20166;-75
2023/11/21 11:24:37;;;;;;;;;;;;;;;10.47;71.33;97627.34;5002498;28;20383;-76
2023/11/21 11:27:28;;;;;;;;;;;;;;;10.39;69.42;97622.69;5010058;28;19935;-76
2023/11/21 11:30:20;;;;;;;;;;;;;;;10.42;69.70;97622.06;5003299;28;19936;-76
2023/11/21 11:33:10;;;;;;;;;;;;;;;10.58;70.22;97622.41;5012174;28;20379;-76
2023/11/21 11:36:02;;;;;;;;;;;;;;;10.73;69.01;97627.38;5008477;28;19925;-76
2023/11/21 11:38:52;;;;;;;;;;;;;;;10.69;69.64;97631.03;5007106;28;20425;-76
2023/11/21 11:41:43;;;;;;;;;;;;;;;10.63;69.64;97626.88;5007419;28;19936;-76
2023/11/21 11:44:55;;;;;;;;;;;;;;;10.73;69.13;97632.78;5006224;28;19933;-77
2023/11/21 11:47:44;;;;;;;;;;;;;;;10.62;69.23;97625.28;5004657;28;19933;-76
2023/11/21 11:50:32;;;;;;;;;;;;;;;10.68;70.33;97624.00;4993700;28;20008;-76
2023/11/21 11:53:21;;;;;;;;;;;;;;;10.82;69.57;97623.88;5009410;28;19929;-76
2023/11/21 11:56:33;;;;;;;;;;;;;;;10.92;69.00;97629.78;5007461;28;20426;-76
2023/11/21 11:59:30;;;;;;;;;;;;;;;10.80;68.59;97632.31;5007187;28;20432;-76
2023/11/21 12:02:22;;;;;;;;;;;;;;;10.77;68.74;97637.59;5005357;28;19926;-76
2023/11/21 12:05:13;;;;;;;;;;;;;;;10.79;68.31;97641.59;5009542;28;19925;-76
2023/11/21 12:08:03;;;;;;;;;;;;;;;10.81;68.20;97639.34;5005137;28;19933;-76
2023/11/21 12:10:54;;;;;;;;;;;;;;;10.76;68.53;97642.25;5005818;28;19940;-76
2023/11/21 12:13:42;;;;;;;;;;;;;;;10.82;69.17;97640.16;5005965;28;20383;-76
2023/11/21 12:16:31;;;;;;;;;;;;;;;10.71;69.53;97651.34;5006250;28;20403;-77
2023/11/21 12:19:20;;;;;;;;;;;;;;;10.78;69.24;97640.00;5001000;28;20295;-76
2023/11/21 12:22:08;;;;;;;;;;;;;;;10.72;70.16;97638.56;5006803;28;20395;-76
2023/11/21 12:24:58;;;;;;;;;;;;;;;10.68;70.50;97638.38;5003199;28;19925;-76
2023/11/21 12:27:49;;;;;;;;;;;;;;;10.79;70.50;97644.31;5004786;28;19948;-76
2023/11/21 12:30:37;;;;;;;;;;;;;;;10.74;70.23;97641.75;5005403;28;19926;-76
2023/11/21 12:33:29;;;;;;;;;;;;;;;10.55;70.47;97641.25;5008170;28;19929;-76
2023/11/21 12:36:17;;;;;;;;;;;;;;;10.52;71.58;97655.47;5007847;28;20023;-76
2023/11/21 12:39:06;;;;;;;;;;;;;;;10.53;70.96;97649.72;5005939;28;20268;-76
2023/11/21 12:41:54;;;;;;;;;;;;;;;10.54;71.11;97658.66;5007899;28;20327;-76
2023/11/21 12:44:45;;;;;;;;;;;;;;;10.53;70.37;97655.13;5010985;28;20349;-76
2023/11/21 12:47:35;;;;;;;;;;;;;;;10.43;70.89;97661.66;5002941;28;19933;-75
2023/11/21 12:50:28;;;;;;;;;;;;;;;10.49;71.11;97665.03;5006992;28;20375;-76
2023/11/21 12:53:17;;;;;;;;;;;;;;;10.48;70.67;97666.16;5006973;28;19968;-76
2023/11/21 12:56:09;;;;;;;;;;;;;;;10.54;70.44;97673.03;5008255;28;19940;-77
2023/11/21 12:58:58;;;;;;;;;;;;;;;10.38;70.47;97680.81;5007216;28;20405;-76
2023/11/21 13:01:49;;;;;;;;;;;;;;;10.37;70.44;97673.78;5006236;28;19932;-76
2023/11/21 13:04:37;;;;;;;;;;;;;;;10.22;71.07;97676.91;5005945;28;20405;-76
2023/11/21 13:07:27;;;;;;;;;;;;;;;10.37;71.10;97676.50;5006494;28;19929;-76
2023/11/21 13:10:15;;;;;;;;;;;;;;;10.30;70.24;97684.31;5005935;28;20033;-76
2023/11/21 13:13:05;;;;;;;;;;;;;;;10.41;70.63;97679.41;5006676;28;19932;-76
2023/11/21 13:15:57;;;;;;;;;;;;;;;10.43;70.64;97682.59;5003970;28;19933;-76
2023/11/21 13:18:45;;;;;;;;;;;;;;;10.38;71.20;97678.09;5004079;28;19963;-76
2023/11/21 13:21:33;;;;;;;;;;;;;;;10.59;71.07;97681.03;5006846;28;19925;-76
2023/11/21 13:24:22;;;;;;;;;;;;;;;10.60;70.06;97688.09;5005603;28;19932;-76
2023/11/21 13:27:11;;;;;;;;;;;;;;;10.63;70.14;97686.66;5005780;28;19960;-76
2023/11/21 13:29:59;;;;;;;;;;;;;;;10.69;69.63;97688.88;5005649;28;20119;-77
2023/11/21 13:32:51;;;;;;;;;;;;;;;10.81;69.98;97682.03;5008803;28;20015;-76
2023/11/21 13:35:41;;;;;;;;;;;;;;;10.73;69.66;97691.78;5002637;28;19933;-75
2023/11/21 13:38:33;;;;;;;;;;;;;;;10.72;69.90;97680.13;5007244;28;21583;-76
2023/11/21 13:41:27;;;;;;;;;;;;;;;10.69;69.22;97685.38;5005863;28;19973;-76
2023/11/21 13:44:26;;;;;;;;;;;;;;;10.59;68.65;97685.66;5005506;28;19926;-76
2023/11/21 13:47:14;;;;;;;;;;;;;;;10.57;69.91;97690.63;5005772;28;19933;-76
2023/11/21 13:50:02;;;;;;;;;;;;;;;10.63;68.63;97692.88;5004734;28;19929;-76
2023/11/21 13:52:53;;;;;;;;;;;;;;;10.77;68.87;97698.19;5008044;28;19933;-76
2023/11/21 13:55:41;;;;;;;;;;;;;;;10.74;68.41;97698.81;5005395;28;19932;-76
2023/11/21 13:58:41;;;;;;;;;;;;;;;10.63;68.08;97695.59;5003909;28;19979;-75
2023/11/21 14:01:53;;;;;;;;;;;;;;;10.60;67.72;97698.13;5001275;28;20931;-75
2023/11/21 14:04:54;;;;;;;;;;;;;;;10.60;67.91;97698.97;5007027;28;19984;-75
2023/11/21 14:07:47;;;;;;;;;;;;;;;10.59;67.81;97699.25;5005064;28;19929;-76
2023/11/21 14:10:42;;;;;;;;;;;;;;;10.60;67.24;97703.56;5010804;28;19987;-75
2023/11/21 14:13:32;;;;;;;;;;;;;;;10.57;67.33;97699.56;5010241;28;19955;-76
2023/11/21 14:16:21;;;;;;;;;;;;;;;10.38;67.99;97702.53;5010512;28;19925;-76
2023/11/21 14:19:15;;;;;;;;;;;;;;;10.49;68.55;97708.50;5011956;28;20295;-75
2023/11/21 14:22:03;;;;;;;;;;;;;;;10.56;67.96;97710.75;5005792;28;19937;-76
2023/11/21 14:24:58;;;;;;;;;;;;;;;10.46;68.43;97709.94;5007404;28;19937;-76
2023/11/21 14:27:46;;;;;;;;;;;;;;;10.60;68.21;97720.69;5004424;28;19929;-76
2023/11/21 14:30:36;;;;;;;;;;;;;;;10.66;68.65;97722.13;5004784;28;19934;-76
2023/11/21 14:33:24;;;;;;;;;;;;;;;10.55;68.15;97723.56;5005825;28;19926;-76
2023/11/21 14:36:17;;;;;;;;;;;;;;;10.62;68.01;97723.88;4991004;28;20031;-76
2023/11/21 14:39:07;;;;;;;;;;;;;;;10.53;68.21;97728.47;5015813;28;19952;-76
2023/11/21 14:41:56;;;;;;;;;;;;;;;10.51;68.46;97729.94;5011272;28;19926;-76
2023/11/21 14:44:44;;;;;;;;;;;;;;;10.61;68.45;97732.34;5009312;28;19940;-77
2023/11/21 14:47:34;;;;;;;;;;;;;;;10.60;68.45;97733.44;5009848;28;20299;-76
2023/11/21 14:50:48;;;;;;;;;;;;;;;10.54;68.17;97737.44;5009922;28;19936;-78